Usk, WA (99180)

4:54 AM PDT on May 26, 2015 (GMT -0700)
RAWS | | Change Station
CLOSE
Current Station
Personal Weather Station
Location: Cusick, WA
Elevation: 2450 ft
Nearby Weather Stations

Elev 2450 ft 48.42 °N, 117.36 °W | Updated 59 minutes ago

Mostly Cloudy
Mostly Cloudy
45 °F
Feels Like 45 °F
N
1
Wind Variable Wind from SW
Gusts 4.0 mph

Today
High -- | Low -- °F
--% Chance of Precip.
Yesterday
High -- | Low -- °F
Precip. -- in
4:57 AM 8:35 PM
First Quarter, 57% visible
Pressure 29.93 in
Visibility 10.0 miles
Clouds Few 3500 ft
Mostly Cloudy 9000 ft
Mostly Cloudy 12000 ft
Windchill 45 °F
Dew Point 43 °F
Humidity 92%
Rainfall in
Snow Depth Not available.
UV 0 out of 12
Pollen 7.60 out of 12
Air Quality Not available.
Flu Activity Sporadic
METAR KDEW 261053Z AUTO 00000KT 10SM FEW035 BKN090 BKN120 11/09 A2993 RMK AO2 SLP133 T01060094

More Conditions Fewer Conditions

Pressure 29.93 in
Visibility 10.0 miles
Clouds Few 3500 ft
Mostly Cloudy 9000 ft
Mostly Cloudy 12000 ft
Windchill 45 °F
Dew Point 43 °F
Humidity 92%
Rainfall in
Snow Depth Not available.
UV 0 out of 12
Pollen 7.60 out of 12
Air Quality Not available.
Flu Activity Sporadic
METAR KDEW 261053Z AUTO 00000KT 10SM FEW035 BKN090 BKN120 11/09 A2993 RMK AO2 SLP133 T01060094

More Conditions Fewer Conditions

10-Day Weather Forecast

Almanac

Astronomy

May. 26, 2015 Rise Set
Actual Time
Civil Twilight
Nautical Twilight
Astronomical Twilight
Moon
Length of Visible Light
Length of Day
Tomorrow will be .
, % of the Moon is Illuminated

Today's Extremes

State Highs State Lows

Community

WunderPhotos

Upload Photos

1,824,304 photos uploaded!

WunderBlogs® & News

Nearby

Air Quality

  Air Quality AQ Index Pollutant
Not available.

Snow Depth

Station Depth Elevation

Earthquake Activity

City Distance Mag. Time & Date
Minimum magnitude displayed is 2.5.

Coastal Water Temperatures

Place Temperature

Stations

Nearby Weather Stations

Station Location Temp. Windchill Dew Point Humidity Wind Precip. Elev Updated Type